createdAt,value
2019-04-06T10:52:55.649Z,29.80
2019-04-06T10:55:48.335Z,29.50
2019-04-06T10:58:37.575Z,28.50
2019-04-06T11:01:24.266Z,30.33
2019-04-06T11:04:16.820Z,28.93
2019-04-06T11:06:55.412Z,31.87
2019-04-06T11:09:55.171Z,30.40
2019-04-06T11:12:45.982Z,28.17
2019-04-06T11:15:49.020Z,27.10
2019-04-06T11:18:36.926Z,28.07
2019-04-06T11:21:27.908Z,29.27
2019-04-06T11:24:23.732Z,28.13
2019-04-06T11:27:06.945Z,28.97
2019-04-06T11:29:53.676Z,28.50
2019-04-06T11:32:40.259Z,27.70
2019-04-06T11:35:24.854Z,26.90
2019-04-06T11:38:21.468Z,29.67
2019-04-06T11:41:18.341Z,29.13
2019-04-06T11:43:58.210Z,26.17
2019-04-06T11:46:50.870Z,25.53
2019-04-06T11:49:47.742Z,26.93
2019-04-06T11:52:37.408Z,28.23
2019-04-06T11:55:26.547Z,28.27
2019-04-06T11:58:14.487Z,26.57
2019-04-06T12:01:05.276Z,28.47
2019-04-06T12:03:54.886Z,32.40
2019-04-06T12:06:30.417Z,26.30
2019-04-06T12:09:21.678Z,30.30
2019-04-06T12:12:11.875Z,27.67
2019-04-06T12:14:56.788Z,28.70
2019-04-06T12:17:43.654Z,28.13
2019-04-06T12:20:47.203Z,26.23
2019-04-06T12:23:41.590Z,25.70
2019-04-06T12:26:29.923Z,28.27
2019-04-06T12:29:22.909Z,27.20
2019-04-06T12:32:11.177Z,26.10
2019-04-06T12:35:01.465Z,30.13
2019-04-06T12:37:48.572Z,26.33
2019-04-06T12:40:24.180Z,28.17
2019-04-06T12:43:07.847Z,23.43
2019-04-06T12:45:53.076Z,20.43
2019-04-06T12:48:46.873Z,20.70
2019-04-06T12:51:35.094Z,27.10
2019-04-06T12:54:31.134Z,20.30
2019-04-06T12:57:07.410Z,20.87
2019-04-06T13:00:03.971Z,22.93
2019-04-06T13:02:53.009Z,20.20
2019-04-06T13:05:53.191Z,21.73
2019-04-06T13:08:58.331Z,23.10
2019-04-06T13:11:45.918Z,21.70
2019-04-06T13:14:32.154Z,18.80
2019-04-06T13:17:20.539Z,20.47
2019-04-06T13:20:02.411Z,19.77
2019-04-06T13:22:46.073Z,17.57
2019-04-06T13:25:47.546Z,18.23
2019-04-06T13:28:45.976Z,16.60
2019-04-06T13:31:37.578Z,16.60
2019-04-06T13:34:30.268Z,15.50
2019-04-06T13:37:21.452Z,15.33
2019-04-06T13:40:10.086Z,15.33
2019-04-06T13:43:10.656Z,15.63
2019-04-06T13:45:49.142Z,17.73
2019-04-06T13:48:46.073Z,15.53
2019-04-06T13:51:29.620Z,16.73
2019-04-06T13:54:16.377Z,16.67
2019-04-06T13:57:44.444Z,15.37
2019-04-06T14:09:28.401Z,22.10
2019-04-06T14:16:42.596Z,20.77
2019-04-06T14:19:29.846Z,23.67
2019-04-06T14:22:35.760Z,18.93
2019-04-06T14:25:32.390Z,19.57
2019-04-06T14:28:27.727Z,20.23
2019-04-06T14:31:29.378Z,22.07
2019-04-06T14:34:10.746Z,20.93
2019-04-06T14:36:58.426Z,18.50
2019-04-06T14:40:16.745Z,17.43
2019-04-06T14:43:06.731Z,17.83
2019-04-06T14:45:54.500Z,15.83
2019-04-06T14:49:12.121Z,17.97
2019-04-06T14:51:40.744Z,18.57
2019-04-06T14:54:16.090Z,19.00
2019-04-06T14:57:01.012Z,17.23
2019-04-06T14:59:56.480Z,16.10
2019-04-06T15:02:43.287Z,19.17
2019-04-06T15:05:25.473Z,16.40
2019-04-06T15:08:18.381Z,17.27
2019-04-06T15:10:54.809Z,16.80
2019-04-06T15:13:36.898Z,16.13
2019-04-06T15:16:28.395Z,16.23
2019-04-06T15:19:12.061Z,16.53
2019-04-06T15:22:00.689Z,15.80
2019-04-06T15:25:10.723Z,16.03
2019-04-06T15:27:25.211Z,15.53
2019-04-06T15:30:27.489Z,15.10
2019-04-06T15:33:23.307Z,14.90
2019-04-06T15:36:11.798Z,14.03
2019-04-06T15:39:02.242Z,16.07
2019-04-06T15:41:57.478Z,15.30
2019-04-06T15:44:44.858Z,15.83
2019-04-06T15:47:31.760Z,13.98
2019-04-06T15:50:32.743Z,16.50
2019-04-06T15:53:30.090Z,14.47
2019-04-06T15:56:27.416Z,15.53
2019-04-06T15:59:20.137Z,14.28
2019-04-06T16:05:32.984Z,13.72
2019-04-06T16:08:39.626Z,13.72
2019-04-06T16:11:18.309Z,13.37
2019-04-06T16:14:16.561Z,13.07
2019-04-06T16:17:14.394Z,13.27
2019-04-06T16:19:53.168Z,13.93
2019-04-06T16:22:37.611Z,13.47
2019-04-06T16:25:36.148Z,13.73
2019-04-06T16:28:29.312Z,12.30
2019-04-06T16:31:24.327Z,13.30
2019-04-06T16:34:07.302Z,12.90
2019-04-06T16:37:17.010Z,13.23
2019-04-06T16:40:09.112Z,12.07
2019-04-06T16:42:52.219Z,11.80
2019-04-06T16:45:36.779Z,11.63
2019-04-06T16:48:38.150Z,11.13
2019-04-06T16:51:39.893Z,12.80
2019-04-06T16:54:46.394Z,12.30
2019-04-06T16:58:02.615Z,12.07
2019-04-06T17:00:39.808Z,11.83
2019-04-06T17:06:51.117Z,11.53
2019-04-06T17:09:41.575Z,9.97
2019-04-06T17:13:18.277Z,11.27
2019-04-06T17:16:24.076Z,11.23
2019-04-06T17:19:05.942Z,10.83
2019-04-06T17:22:02.393Z,57.60
2019-04-06T17:29:47.504Z,8.93
2019-04-06T17:32:04.228Z,9.00
2019-04-06T17:35:31.322Z,9.60
2019-04-06T17:38:37.296Z,9.40
2019-04-06T17:41:52.392Z,9.43
2019-04-06T17:45:08.156Z,9.57
2019-04-06T17:52:06.307Z,10.57
2019-04-06T17:58:43.991Z,11.03
2019-04-06T18:05:51.142Z,12.17
2019-04-06T18:08:35.991Z,12.40
2019-04-06T18:12:00.809Z,14.17
2019-04-06T18:24:25.078Z,14.33
2019-04-06T18:34:37.597Z,13.50
2019-04-06T18:37:47.415Z,13.93
2019-04-06T18:45:10.028Z,13.13
2019-04-06T18:48:45.541Z,12.47
2019-04-06T19:21:57.930Z,14.50
2019-04-06T19:25:36.390Z,14.23
2019-04-06T19:29:09.290Z,16.47
2019-04-06T19:33:01.420Z,15.10
2019-04-06T19:49:33.988Z,19.83
2019-04-06T20:27:54.076Z,15.83
2019-04-06T20:34:28.605Z,14.53
2019-04-06T20:37:45.541Z,14.43
2019-04-06T20:41:08.701Z,14.20
2019-04-06T20:43:43.268Z,15.27
2019-04-06T20:49:41.584Z,16.07
2019-04-06T20:52:15.077Z,16.10
2019-04-06T20:54:52.602Z,13.90
2019-04-06T20:57:36.349Z,14.83
2019-04-06T21:04:01.007Z,14.93
2019-04-06T21:06:46.467Z,14.20
2019-04-06T21:09:39.361Z,14.07
2019-04-06T21:12:23.672Z,14.00
2019-04-06T21:26:48.980Z,14.07
2019-04-06T21:29:33.266Z,13.73
2019-04-06T21:32:08.636Z,13.53
2019-04-06T21:34:49.490Z,16.43
2019-04-06T21:44:44.788Z,13.77
2019-04-06T22:00:58.411Z,15.57
2019-04-06T22:03:53.864Z,15.83
2019-04-06T22:06:35.539Z,17.97
2019-04-06T22:09:19.189Z,17.73
2019-04-06T22:11:56.460Z,16.90
2019-04-06T22:14:25.234Z,17.93
2019-04-06T22:17:34.977Z,17.03
2019-04-06T22:20:24.261Z,17.40
2019-04-06T22:23:00.742Z,17.23
2019-04-06T22:26:03.511Z,18.50
2019-04-06T22:28:41.394Z,17.27
2019-04-06T22:31:23.821Z,18.70
2019-04-06T22:34:12.587Z,18.27
2019-04-06T22:40:31.616Z,17.47
2019-04-06T22:43:05.305Z,18.70
2019-04-06T22:45:39.243Z,18.00
2019-04-06T22:48:42.868Z,18.57
2019-04-06T22:51:18.319Z,19.20
2019-04-06T22:54:02.559Z,18.60
2019-04-06T22:56:39.190Z,20.13
2019-04-06T22:59:24.811Z,19.27
2019-04-06T23:01:53.259Z,18.33
2019-04-06T23:04:51.480Z,19.20
2019-04-06T23:07:32.746Z,19.40
2019-04-06T23:10:09.212Z,18.77
2019-04-06T23:12:42.938Z,19.13
2019-04-06T23:15:22.557Z,19.60
2019-04-06T23:21:04.066Z,19.50
2019-04-06T23:24:03.682Z,19.43
2019-04-06T23:26:37.176Z,21.50
2019-04-06T23:29:11.893Z,20.53
2019-04-06T23:31:46.815Z,18.07
2019-04-06T23:34:20.611Z,20.43
2019-04-06T23:36:52.238Z,19.97
2019-04-06T23:39:24.242Z,19.30
2019-04-06T23:41:58.927Z,20.57
2019-04-06T23:44:32.936Z,19.43
2019-04-06T23:47:09.451Z,19.80
2019-04-06T23:50:29.371Z,19.33
2019-04-06T23:53:07.095Z,19.30
2019-04-06T23:55:44.676Z,18.20
2019-04-06T23:58:16.273Z,18.13
